KRTN/RTN METAR and TAF weather

Enter ICAO airport designator
Station Type Date Time Source
KRTN METAR 2020/01/20 09:53 UTC NOAA

KRTN 200953Z AUTO 04003KT 10SM CLR M08/M10 A3045 RMK AO2 SLP323 T10781100


Station Type Date Time Source
KRTN Decoded METAR 2020/01/20 09:53 UTC NOAA

Raton, Raton Municipal \ Crews Field Airport, NM, United States (KRTN) 36-44-31N 104-39-28W 1939M
Jan 20, 2020 - 04:53 AM EST / 2020.01.20 0953 UTC
Wind: from the NE (040 degrees) at 3 MPH (3 KT):0
Visibility: 10 mile(s):0
Sky conditions: clear
Temperature: 18.0 F (-7.8 C)
Dew Point: 14.0 F (-10.0 C)
Relative Humidity: 84%
Pressure (altimeter): 30.45 in. Hg (1031 hPa)
ob: KRTN 200953Z AUTO 04003KT 10SM CLR M08/M10 A3045 RMK AO2 SLP323 T10781100
cycle: 10

Station Type Date Time Source
KRTN TAF UTC NOAA

Error!

Example: see airport list